createdAt,value
2022-08-28T00:01:01.870Z,100.00
2022-08-28T00:03:35.323Z,100.00
2022-08-28T00:06:06.203Z,100.00
2022-08-28T00:08:36.580Z,100.00
2022-08-28T00:11:07.460Z,100.00
2022-08-28T00:13:38.065Z,100.00
2022-08-28T00:16:09.665Z,100.00
2022-08-28T00:18:44.116Z,100.00
2022-08-28T00:21:17.833Z,100.00
2022-08-28T00:23:48.481Z,100.00
2022-08-28T00:26:38.727Z,100.00
2022-08-28T00:29:07.477Z,100.00
2022-08-28T00:31:40.207Z,100.00
2022-08-28T00:34:13.914Z,100.00
2022-08-28T00:36:45.403Z,100.00
2022-08-28T00:39:15.719Z,100.00
2022-08-28T00:41:52.506Z,100.00
2022-08-28T00:44:30.871Z,100.00
2022-08-28T00:47:03.358Z,100.00
2022-08-28T00:49:41.074Z,100.00
2022-08-28T00:52:11.788Z,100.00
2022-08-28T00:54:59.446Z,100.00
2022-08-28T00:57:35.223Z,100.00
2022-08-28T01:00:12.367Z,100.00
2022-08-28T01:02:44.076Z,100.00
2022-08-28T01:05:19.355Z,100.00
2022-08-28T01:07:50.948Z,100.00
2022-08-28T01:10:25.944Z,100.00
2022-08-28T01:12:57.558Z,100.00
2022-08-28T01:15:32.968Z,100.00
2022-08-28T01:18:08.573Z,100.00
2022-08-28T01:20:50.753Z,100.00
2022-08-28T01:23:42.811Z,100.00
2022-08-28T01:26:13.383Z,100.00
2022-08-28T01:28:44.013Z,100.00
2022-08-28T01:31:17.210Z,100.00
2022-08-28T01:33:49.592Z,100.00
2022-08-28T01:36:21.367Z,100.00
2022-08-28T01:39:09.760Z,100.00
2022-08-28T01:41:42.307Z,100.00
2022-08-28T01:44:12.808Z,100.00
2022-08-28T01:46:44.935Z,100.00
2022-08-28T01:49:15.656Z,100.00
2022-08-28T01:51:46.204Z,100.00
2022-08-28T01:54:19.172Z,100.00
2022-08-28T01:56:49.716Z,100.00
2022-08-28T01:59:20.312Z,100.00
2022-08-28T02:01:51.065Z,100.00
2022-08-28T02:04:21.314Z,100.00
2022-08-28T02:07:02.164Z,100.00
2022-08-28T02:09:35.060Z,100.00
2022-08-28T02:12:07.096Z,100.00
2022-08-28T02:14:38.787Z,100.00
2022-08-28T02:17:09.034Z,100.00
2022-08-28T02:19:39.227Z,100.00
2022-08-28T02:22:09.550Z,100.00
2022-08-28T02:24:42.745Z,100.00
2022-08-28T02:27:13.063Z,100.00
2022-08-28T02:29:44.282Z,100.00
2022-08-28T02:32:14.807Z,100.00
2022-08-28T02:34:45.054Z,100.00
2022-08-28T02:37:15.681Z,100.00
2022-08-28T02:39:48.566Z,100.00
2022-08-28T02:42:19.188Z,100.00
2022-08-28T02:44:49.691Z,100.00
2022-08-28T02:47:20.220Z,100.00
2022-08-28T02:49:50.508Z,100.00
2022-08-28T02:52:22.027Z,100.00
2022-08-28T02:54:54.867Z,100.00
2022-08-28T02:57:25.759Z,100.00
2022-08-28T02:59:56.688Z,100.00
2022-08-28T03:02:26.948Z,100.00
2022-08-28T03:04:57.349Z,100.00
2022-08-28T03:07:28.052Z,100.00
2022-08-28T03:10:00.673Z,100.00
2022-08-28T03:12:31.023Z,100.00
2022-08-28T03:15:01.202Z,100.00
2022-08-28T03:17:31.964Z,100.00
2022-08-28T03:20:01.914Z,100.00
2022-08-28T03:22:44.459Z,100.00
2022-08-28T03:25:17.872Z,100.00
2022-08-28T03:27:48.139Z,100.00
2022-08-28T03:30:19.552Z,100.00
2022-08-28T03:32:49.996Z,100.00
2022-08-28T03:35:21.990Z,100.00
2022-08-28T03:37:52.182Z,100.00
2022-08-28T03:40:25.367Z,100.00
2022-08-28T03:42:55.815Z,100.00
2022-08-28T03:45:26.022Z,100.00
2022-08-28T03:47:57.067Z,100.00
2022-08-28T03:50:28.960Z,100.00
2022-08-28T03:52:59.843Z,100.00
2022-08-28T03:55:32.659Z,100.00
2022-08-28T03:58:04.595Z,100.00
2022-08-28T04:00:36.306Z,100.00
2022-08-28T04:03:06.939Z,100.00
2022-08-28T04:05:37.736Z,100.00
2022-08-28T04:08:08.126Z,100.00
2022-08-28T04:10:41.339Z,100.00
2022-08-28T04:13:11.767Z,100.00
2022-08-28T04:15:42.039Z,100.00
2022-08-28T04:18:13.479Z,100.00
2022-08-28T04:20:46.418Z,100.00
2022-08-28T04:23:16.728Z,100.00
2022-08-28T04:25:49.470Z,100.00
2022-08-28T04:28:19.790Z,100.00
2022-08-28T04:30:49.981Z,100.00
2022-08-28T04:33:20.173Z,100.00
2022-08-28T04:35:50.459Z,100.00
2022-08-28T04:38:21.339Z,100.00
2022-08-28T04:40:54.128Z,100.00
2022-08-28T04:43:24.370Z,100.00
2022-08-28T04:45:56.396Z,100.00
2022-08-28T04:48:26.742Z,100.00
2022-08-28T04:50:56.918Z,100.00
2022-08-28T04:53:27.488Z,100.00
2022-08-28T04:56:00.810Z,100.00
2022-08-28T04:58:32.347Z,100.00
2022-08-28T05:01:08.399Z,100.00
2022-08-28T05:03:39.252Z,100.00
2022-08-28T05:06:10.160Z,100.00
2022-08-28T05:08:40.343Z,100.00
2022-08-28T05:11:22.105Z,100.00
2022-08-28T05:14:06.537Z,100.00
2022-08-28T05:16:43.093Z,100.00
2022-08-28T05:19:13.441Z,100.00
2022-08-28T05:21:44.195Z,100.00
2022-08-28T05:24:14.565Z,100.00
2022-08-28T05:26:48.201Z,100.00
2022-08-28T05:29:19.593Z,100.00
2022-08-28T05:31:50.055Z,100.00
2022-08-28T05:34:20.869Z,100.00
2022-08-28T05:36:50.823Z,100.00
2022-08-28T05:39:21.334Z,100.00
2022-08-28T05:41:54.143Z,100.00
2022-08-28T05:44:24.376Z,100.00
2022-08-28T05:46:54.736Z,100.00
2022-08-28T05:49:25.253Z,100.00
2022-08-28T05:51:55.479Z,100.00
2022-08-28T05:54:25.772Z,100.00
2022-08-28T05:56:59.034Z,100.00
2022-08-28T05:59:29.194Z,100.00
2022-08-28T06:02:03.623Z,100.00
2022-08-28T06:04:35.677Z,100.00
2022-08-28T06:07:08.216Z,100.00
2022-08-28T06:09:38.498Z,100.00
2022-08-28T06:12:12.729Z,100.00
2022-08-28T06:14:44.976Z,99.57
2022-08-28T06:17:15.173Z,99.83
2022-08-28T06:19:45.425Z,98.77
2022-08-28T06:22:15.612Z,99.22
2022-08-28T06:24:45.727Z,97.71
2022-08-28T06:27:19.086Z,96.44
2022-08-28T06:29:49.288Z,94.89
2022-08-28T06:32:19.493Z,94.93
2022-08-28T06:34:49.702Z,95.93
2022-08-28T06:37:19.929Z,95.57
2022-08-28T06:39:50.081Z,95.45
2022-08-28T06:42:23.144Z,95.13
2022-08-28T06:44:53.294Z,95.51
2022-08-28T06:47:23.745Z,94.81
2022-08-28T06:49:54.598Z,94.00
2022-08-28T06:52:24.816Z,94.90
2022-08-28T06:54:55.838Z,95.77
2022-08-28T06:57:28.910Z,96.86
2022-08-28T06:59:59.444Z,95.83
2022-08-28T07:02:29.762Z,95.16
2022-08-28T07:05:00.588Z,95.28
2022-08-28T07:07:32.375Z,95.55
2022-08-28T07:10:03.051Z,95.38
2022-08-28T07:12:35.827Z,95.05
2022-08-28T07:15:06.724Z,93.46
2022-08-28T07:17:36.986Z,93.72
2022-08-28T07:20:08.319Z,92.55
2022-08-28T07:22:40.929Z,92.77
2022-08-28T07:25:13.008Z,91.89
2022-08-28T07:27:45.802Z,91.80
2022-08-28T07:30:17.176Z,91.68
2022-08-28T07:32:49.344Z,90.63
2022-08-28T07:35:21.050Z,91.00
2022-08-28T07:37:51.877Z,90.84
2022-08-28T07:40:22.479Z,92.12
2022-08-28T07:43:07.754Z,92.58
2022-08-28T07:45:38.131Z,91.68
2022-08-28T07:48:11.634Z,90.24
2022-08-28T07:50:42.052Z,89.60
2022-08-28T07:53:12.635Z,90.00
2022-08-28T07:55:42.796Z,89.73
2022-08-28T07:58:16.354Z,88.11
2022-08-28T08:00:46.566Z,88.49
2022-08-28T08:03:16.982Z,86.94
2022-08-28T08:05:55.955Z,87.50
2022-08-28T08:08:26.831Z,86.47
2022-08-28T08:11:03.107Z,85.85
2022-08-28T08:13:40.736Z,85.81
2022-08-28T08:16:15.053Z,85.50
2022-08-28T08:18:45.946Z,85.48
2022-08-28T08:21:19.258Z,83.96
2022-08-28T08:23:50.684Z,82.87
2022-08-28T08:26:23.790Z,83.71
2022-08-28T08:28:56.922Z,85.58
2022-08-28T08:31:32.500Z,84.65
2022-08-28T08:34:06.663Z,84.63
2022-08-28T08:36:39.205Z,84.01
2022-08-28T08:39:11.013Z,84.14
2022-08-28T08:41:48.382Z,83.57
2022-08-28T08:44:33.508Z,83.79
2022-08-28T08:47:15.140Z,82.68
2022-08-28T08:49:54.062Z,81.04
2022-08-28T08:52:37.569Z,79.58
2022-08-28T08:55:27.209Z,76.52
2022-08-28T08:58:06.662Z,74.26
2022-08-28T09:00:48.877Z,72.08
2022-08-28T09:03:27.713Z,70.50
2022-08-28T09:06:03.415Z,70.81
2022-08-28T09:08:39.963Z,70.53
2022-08-28T09:11:26.280Z,68.37
2022-08-28T09:14:04.889Z,68.53
2022-08-28T09:16:41.732Z,66.03
2022-08-28T09:19:16.169Z,66.42
2022-08-28T09:21:48.817Z,63.38
2022-08-28T09:24:29.235Z,60.79
2022-08-28T09:27:03.620Z,58.85
2022-08-28T09:29:37.769Z,58.97
2022-08-28T09:32:26.523Z,58.73
2022-08-28T09:35:22.065Z,58.04
2022-08-28T09:37:52.245Z,58.02
2022-08-28T09:40:48.337Z,56.35
2022-08-28T09:43:30.244Z,56.17
2022-08-28T09:46:04.654Z,56.88
2022-08-28T09:48:41.255Z,57.99
2022-08-28T09:51:13.877Z,58.08
2022-08-28T09:53:59.761Z,59.02
2022-08-28T09:56:34.102Z,58.85
2022-08-28T09:59:09.455Z,60.76
2022-08-28T10:02:03.252Z,61.60
2022-08-28T10:05:00.252Z,63.05
2022-08-28T10:07:41.958Z,63.59
2022-08-28T10:10:34.847Z,63.24
2022-08-28T10:13:14.721Z,64.04
2022-08-28T10:16:05.007Z,62.46
2022-08-28T10:18:46.730Z,60.94
2022-08-28T10:21:27.356Z,63.43
2022-08-28T10:24:26.078Z,63.70
2022-08-28T10:27:07.600Z,63.51
2022-08-28T10:29:51.644Z,64.93
2022-08-28T10:33:03.901Z,66.19
2022-08-28T10:35:49.569Z,67.68
2022-08-28T10:38:33.825Z,69.07
2022-08-28T10:41:12.230Z,69.46
2022-08-28T10:43:48.859Z,70.16
2022-08-28T10:46:27.225Z,69.72
2022-08-28T10:49:05.100Z,70.54
2022-08-28T10:51:43.599Z,70.48
2022-08-28T10:54:26.409Z,71.22
2022-08-28T10:57:03.242Z,70.43
2022-08-28T10:59:42.175Z,71.35
2022-08-28T11:02:16.632Z,71.83
2022-08-28T11:04:50.401Z,71.93
2022-08-28T11:07:31.345Z,73.64
2022-08-28T11:10:22.749Z,73.12
2022-08-28T11:12:55.023Z,72.47
2022-08-28T11:15:56.286Z,71.93
2022-08-28T11:18:57.820Z,74.15
2022-08-28T11:21:32.248Z,72.66
2022-08-28T11:24:10.052Z,71.26
2022-08-28T11:26:59.450Z,72.64
2022-08-28T11:30:06.616Z,73.38
2022-08-28T11:32:59.415Z,72.12
2022-08-28T11:35:48.514Z,72.41
2022-08-28T11:39:15.214Z,70.95
2022-08-28T11:42:39.436Z,70.64
2022-08-28T11:45:22.624Z,70.94
2022-08-28T11:47:59.481Z,70.91
2022-08-28T11:50:36.707Z,71.01
2022-08-28T11:53:46.682Z,71.08
2022-08-28T11:56:51.734Z,70.91
2022-08-28T11:59:53.335Z,68.94
2022-08-28T12:02:51.179Z,68.60
2022-08-28T12:05:54.901Z,67.64
2022-08-28T12:09:13.444Z,66.44
2022-08-28T12:12:04.366Z,63.65
2022-08-28T12:15:07.827Z,65.78
2022-08-28T12:17:53.888Z,64.40
2022-08-28T12:21:01.796Z,62.80
2022-08-28T12:23:45.117Z,62.93
2022-08-28T12:26:27.407Z,62.76
2022-08-28T12:29:01.453Z,62.08
2022-08-28T12:32:18.839Z,63.49
2022-08-28T12:35:21.085Z,61.69
2022-08-28T12:38:05.056Z,62.13
2022-08-28T12:40:50.646Z,59.83
2022-08-28T12:43:35.808Z,60.11
2022-08-28T12:46:18.895Z,60.24
2022-08-28T12:48:59.561Z,60.80
2022-08-28T12:51:35.812Z,61.07
2022-08-28T12:54:09.054Z,60.17
2022-08-28T12:56:41.883Z,61.27
2022-08-28T12:59:35.296Z,60.78
2022-08-28T13:02:07.036Z,62.55
2022-08-28T13:04:41.084Z,60.44
2022-08-28T13:07:16.977Z,60.17
2022-08-28T13:09:52.074Z,58.46
2022-08-28T13:12:31.978Z,59.67
2022-08-28T13:16:01.633Z,61.94
2022-08-28T13:18:56.636Z,59.59
2022-08-28T13:21:39.276Z,58.64
2022-08-28T13:24:43.703Z,59.16
2022-08-28T13:27:25.471Z,58.44
2022-08-28T13:30:04.659Z,57.30
2022-08-28T13:32:42.006Z,55.38
2022-08-28T13:35:37.473Z,52.52
2022-08-28T13:38:11.950Z,51.65
2022-08-28T13:40:58.799Z,51.00
2022-08-28T13:43:32.827Z,47.65
2022-08-28T13:46:03.032Z,46.48
2022-08-28T13:48:35.856Z,47.16
2022-08-28T13:51:10.726Z,46.47
2022-08-28T13:53:42.850Z,47.13
2022-08-28T13:56:13.472Z,44.03
2022-08-28T13:58:43.871Z,41.43
2022-08-28T14:01:44.920Z,38.98
2022-08-28T14:04:15.332Z,37.13
2022-08-28T14:06:45.710Z,34.87
2022-08-28T14:09:17.684Z,35.52
2022-08-28T14:11:49.786Z,35.24
2022-08-28T14:14:20.703Z,34.10
2022-08-28T14:16:51.683Z,33.35
2022-08-28T14:19:25.878Z,35.14
2022-08-28T14:21:56.350Z,35.61
2022-08-28T14:24:27.201Z,35.67
2022-08-28T14:26:58.673Z,35.79
2022-08-28T14:29:29.094Z,35.71
2022-08-28T14:31:59.881Z,32.84
2022-08-28T14:34:34.866Z,32.73
2022-08-28T14:37:05.104Z,34.34
2022-08-28T14:39:35.904Z,34.39
2022-08-28T14:42:13.083Z,36.54
2022-08-28T14:44:43.566Z,34.60
2022-08-28T14:47:14.716Z,33.52
2022-08-28T14:49:47.704Z,32.43
2022-08-28T14:52:19.503Z,32.31
2022-08-28T14:54:49.751Z,32.29
2022-08-28T14:57:20.054Z,32.66
2022-08-28T14:59:50.285Z,32.25
2022-08-28T15:02:20.448Z,31.80
2022-08-28T15:04:53.304Z,31.19
2022-08-28T15:07:23.940Z,31.81
2022-08-28T15:09:55.096Z,32.30
2022-08-28T15:12:25.847Z,32.29
2022-08-28T15:14:57.239Z,32.78
2022-08-28T15:17:33.952Z,33.44
2022-08-28T15:20:09.174Z,35.45
2022-08-28T15:22:39.436Z,35.21
2022-08-28T15:25:10.863Z,36.81
2022-08-28T15:27:41.569Z,36.41
2022-08-28T15:30:13.867Z,36.40
2022-08-28T15:32:46.240Z,36.50
2022-08-28T15:35:19.292Z,34.31
2022-08-28T15:37:49.518Z,34.21
2022-08-28T15:40:32.434Z,34.63
2022-08-28T15:43:02.720Z,35.98
2022-08-28T15:45:33.028Z,35.58
2022-08-28T15:48:03.266Z,35.68
2022-08-28T15:50:36.396Z,35.67
2022-08-28T15:53:07.913Z,36.55
2022-08-28T15:55:38.133Z,36.53
2022-08-28T15:58:08.832Z,38.02
2022-08-28T16:00:44.951Z,38.22
2022-08-28T16:03:15.696Z,38.78
2022-08-28T16:05:49.701Z,39.84
2022-08-28T16:08:19.958Z,41.22
2022-08-28T16:10:51.726Z,40.82
2022-08-28T16:13:23.832Z,42.28
2022-08-28T16:15:54.133Z,44.28
2022-08-28T16:18:24.300Z,45.48
2022-08-28T16:20:59.521Z,45.70
2022-08-28T16:23:31.725Z,47.25
2022-08-28T16:26:02.676Z,49.04
2022-08-28T16:28:32.950Z,46.61
2022-08-28T16:31:07.431Z,46.55
2022-08-28T16:33:38.479Z,47.17
2022-08-28T16:36:16.903Z,48.59
2022-08-28T16:39:00.469Z,48.91
2022-08-28T16:41:34.975Z,49.23
2022-08-28T16:44:05.900Z,50.30
2022-08-28T16:46:36.348Z,50.02
2022-08-28T16:49:07.002Z,51.00
2022-08-28T16:51:40.508Z,49.25
2022-08-28T16:54:10.794Z,47.92
2022-08-28T16:56:41.124Z,50.55
2022-08-28T16:59:11.406Z,51.54
2022-08-28T17:01:42.635Z,52.14
2022-08-28T17:04:13.692Z,50.69
2022-08-28T17:06:47.628Z,51.04
2022-08-28T17:09:20.953Z,51.41
2022-08-28T17:11:52.157Z,52.20
2022-08-28T17:14:23.123Z,52.99
2022-08-28T17:16:54.931Z,54.05
2022-08-28T17:19:25.376Z,54.22
2022-08-28T17:22:10.642Z,54.01
2022-08-28T17:24:40.925Z,54.36
2022-08-28T17:27:11.324Z,55.12
2022-08-28T17:29:41.610Z,55.19
2022-08-28T17:32:14.670Z,55.73
2022-08-28T17:34:45.141Z,56.01
2022-08-28T17:37:18.039Z,55.61
2022-08-28T17:39:48.283Z,55.66
2022-08-28T17:42:18.586Z,56.31
2022-08-28T17:44:48.789Z,56.15
2022-08-28T17:47:26.278Z,56.79
2022-08-28T17:50:01.782Z,57.89
2022-08-28T17:52:35.439Z,58.46
2022-08-28T17:55:06.725Z,59.65
2022-08-28T17:57:36.910Z,60.84
2022-08-28T18:00:10.957Z,62.27
2022-08-28T18:02:44.422Z,63.82
2022-08-28T18:05:16.777Z,65.95
2022-08-28T18:07:49.839Z,66.95
2022-08-28T18:10:20.000Z,67.02
2022-08-28T18:12:50.530Z,67.55
2022-08-28T18:15:20.784Z,68.01
2022-08-28T18:17:50.952Z,68.36
2022-08-28T18:20:22.329Z,69.24
2022-08-28T18:22:55.520Z,69.33
2022-08-28T18:25:50.795Z,69.53
2022-08-28T18:28:25.181Z,70.19
2022-08-28T18:30:56.027Z,70.45
2022-08-28T18:33:27.434Z,71.15
2022-08-28T18:35:57.690Z,71.48
2022-08-28T18:38:35.086Z,72.36
2022-08-28T18:41:06.060Z,72.88
2022-08-28T18:43:36.733Z,73.27
2022-08-28T18:46:09.364Z,73.89
2022-08-28T18:48:40.761Z,73.89
2022-08-28T18:51:13.563Z,73.92
2022-08-28T18:53:46.514Z,73.39
2022-08-28T18:56:19.242Z,73.35
2022-08-28T18:58:51.912Z,73.36
2022-08-28T19:01:22.220Z,73.44
2022-08-28T19:03:52.601Z,73.25
2022-08-28T19:06:22.936Z,72.76
2022-08-28T19:08:55.914Z,73.02
2022-08-28T19:11:26.117Z,74.43
2022-08-28T19:13:56.271Z,74.76
2022-08-28T19:16:26.475Z,75.65
2022-08-28T19:18:56.663Z,75.37
2022-08-28T19:21:27.538Z,74.76
2022-08-28T19:24:01.100Z,74.92
2022-08-28T19:26:32.065Z,75.04
2022-08-28T19:29:03.128Z,75.64
2022-08-28T19:31:35.919Z,76.23
2022-08-28T19:34:07.769Z,76.23
2022-08-28T19:36:38.804Z,75.97
2022-08-28T19:39:11.723Z,75.67
2022-08-28T19:41:43.704Z,75.97
2022-08-28T19:44:14.190Z,76.89
2022-08-28T19:46:44.763Z,76.71
2022-08-28T19:49:15.121Z,76.80
2022-08-28T19:51:45.390Z,77.25
2022-08-28T19:54:18.297Z,77.96
2022-08-28T19:56:48.472Z,77.96
2022-08-28T19:59:18.732Z,78.58
2022-08-28T20:01:49.027Z,78.92
2022-08-28T20:04:19.644Z,78.97
2022-08-28T20:06:50.104Z,78.55
2022-08-28T20:09:23.036Z,78.74
2022-08-28T20:11:53.248Z,79.45
2022-08-28T20:14:24.545Z,78.42
2022-08-28T20:16:55.467Z,79.29
2022-08-28T20:19:25.760Z,79.49
2022-08-28T20:21:55.938Z,79.20
2022-08-28T20:24:29.216Z,79.38
2022-08-28T20:26:59.687Z,80.12
2022-08-28T20:29:30.215Z,80.18
2022-08-28T20:32:00.866Z,80.07
2022-08-28T20:34:32.076Z,80.08
2022-08-28T20:37:02.464Z,79.83
2022-08-28T20:39:37.171Z,80.54
2022-08-28T20:42:07.721Z,81.03
2022-08-28T20:44:38.294Z,80.92
2022-08-28T20:47:09.635Z,80.82
2022-08-28T20:49:39.747Z,80.10
2022-08-28T20:52:10.298Z,80.45
2022-08-28T20:54:44.880Z,80.26
2022-08-28T20:57:18.635Z,80.45
2022-08-28T20:59:50.263Z,80.27
2022-08-28T21:02:23.461Z,80.64
2022-08-28T21:04:55.257Z,80.63
2022-08-28T21:07:28.058Z,80.69
2022-08-28T21:10:07.157Z,80.97
2022-08-28T21:12:38.921Z,81.63
2022-08-28T21:15:12.593Z,82.12
2022-08-28T21:17:43.077Z,81.91
2022-08-28T21:20:17.498Z,82.41
2022-08-28T21:22:48.496Z,83.32
2022-08-28T21:25:25.885Z,82.87
2022-08-28T21:27:56.353Z,83.07
2022-08-28T21:30:29.680Z,82.81
2022-08-28T21:33:00.136Z,83.16
2022-08-28T21:35:30.442Z,82.81
2022-08-28T21:38:00.679Z,83.41
2022-08-28T21:40:35.341Z,82.89
2022-08-28T21:43:05.795Z,83.13
2022-08-28T21:45:36.604Z,83.58
2022-08-28T21:48:06.969Z,83.95
2022-08-28T21:50:37.213Z,83.14
2022-08-28T21:53:07.450Z,83.15
2022-08-28T21:55:40.278Z,83.74
2022-08-28T21:58:11.967Z,84.06
2022-08-28T22:00:42.198Z,84.34
2022-08-28T22:03:12.375Z,84.19
2022-08-28T22:05:45.735Z,84.55
2022-08-28T22:08:17.399Z,85.09
2022-08-28T22:10:50.274Z,85.18
2022-08-28T22:13:21.023Z,85.65
2022-08-28T22:15:51.226Z,86.02
2022-08-28T22:18:21.719Z,86.41
2022-08-28T22:21:14.660Z,86.11
2022-08-28T22:23:45.113Z,86.72
2022-08-28T22:26:21.456Z,87.06
2022-08-28T22:28:51.758Z,87.39
2022-08-28T22:31:22.041Z,87.58
2022-08-28T22:33:52.653Z,87.40
2022-08-28T22:36:24.377Z,87.78
2022-08-28T22:38:59.765Z,87.91
2022-08-28T22:41:33.109Z,88.36
2022-08-28T22:44:03.678Z,88.99
2022-08-28T22:46:33.879Z,89.01
2022-08-28T22:49:04.056Z,89.61
2022-08-28T22:51:37.336Z,89.33
2022-08-28T22:54:08.760Z,90.00
2022-08-28T22:56:42.256Z,89.83
2022-08-28T22:59:12.751Z,90.06
2022-08-28T23:01:44.587Z,89.75
2022-08-28T23:04:16.125Z,90.41
2022-08-28T23:06:46.452Z,90.29
2022-08-28T23:09:16.679Z,90.32
2022-08-28T23:11:50.077Z,90.66
2022-08-28T23:14:20.873Z,90.70
2022-08-28T23:16:50.955Z,91.21
2022-08-28T23:19:21.618Z,91.39
2022-08-28T23:21:52.480Z,91.36
2022-08-28T23:24:22.917Z,91.73
2022-08-28T23:26:55.784Z,91.99
2022-08-28T23:29:26.211Z,91.96
2022-08-28T23:31:56.423Z,91.77
2022-08-28T23:34:28.431Z,91.50
2022-08-28T23:36:58.714Z,91.69
2022-08-28T23:39:29.148Z,91.35
2022-08-28T23:42:03.210Z,91.14
2022-08-28T23:44:33.688Z,91.33
2022-08-28T23:47:04.140Z,91.40
2022-08-28T23:49:35.538Z,91.84
2022-08-28T23:52:14.360Z,91.82
2022-08-28T23:54:44.597Z,92.17
2022-08-28T23:57:18.077Z,92.40
2022-08-28T23:59:48.381Z,92.30
